Eggleston, Virginia
Current Conditions -  °F | °C
As of 7:55 AM on Thursday 23 Oct 2014 (Local Time) from KPSK Reporting Station
Overcast Overcast  
Wind Chill: 41°   Ceiling: 2000
Heat Index: 46°   Visibility: 10mi
Dew Point: 40°   Wind: 10mph
Humidity: 80%   Direction: 320°NW
Pressure: 30.13"   Gusts: NA
Location:  37.29°N, 80.62°W
Report Text: KPSK 231155Z AUTO 32009KT 10SM OVC020 08/05 A3013 RMK AO2 6//// 7//// T00770045
Loading
Personal Weather Stations






























Interactive Weather Map
Tropical Storm Tracking
New forecast layout! Learn more

10-Day Weather Forecast

Advertisements
Track Severe Weather on mobile